createdAt,value
2018-06-13T00:01:44.178Z,25.00
2018-06-13T00:06:47.525Z,25.10
2018-06-13T00:11:50.752Z,25.10
2018-06-13T00:16:53.961Z,25.10
2018-06-13T00:21:58.065Z,25.10
2018-06-13T00:27:01.404Z,25.10
2018-06-13T00:32:04.666Z,25.20
2018-06-13T00:37:08.240Z,25.20
2018-06-13T00:42:11.394Z,25.20
2018-06-13T00:47:14.687Z,25.20
2018-06-13T00:52:18.257Z,25.20
2018-06-13T00:57:21.410Z,25.20
2018-06-13T01:02:24.680Z,25.20
2018-06-13T01:07:28.062Z,25.30
2018-06-13T01:12:31.203Z,25.30
2018-06-13T01:17:35.226Z,25.30
2018-06-13T01:22:38.619Z,25.30
2018-06-13T01:27:41.856Z,25.30
2018-06-13T01:32:45.165Z,25.30
2018-06-13T01:37:48.350Z,25.30
2018-06-13T01:42:51.791Z,25.30
2018-06-13T01:47:54.987Z,25.30
2018-06-13T01:52:58.323Z,25.40
2018-06-13T01:58:01.524Z,25.30
2018-06-13T02:03:04.737Z,25.40
2018-06-13T02:08:07.912Z,25.40
2018-06-13T02:13:11.242Z,25.40
2018-06-13T02:18:14.657Z,25.40
2018-06-13T02:23:17.929Z,25.40
2018-06-13T02:28:21.192Z,25.40
2018-06-13T02:33:24.558Z,25.40
2018-06-13T02:38:28.328Z,25.40
2018-06-13T02:43:31.581Z,25.40
2018-06-13T02:48:34.896Z,25.40
2018-06-13T02:53:38.284Z,25.40
2018-06-13T02:58:41.488Z,25.40
2018-06-13T03:03:44.755Z,25.40
2018-06-13T03:08:47.939Z,25.40
2018-06-13T03:13:51.168Z,25.40
2018-06-13T03:18:55.263Z,25.40
2018-06-13T03:23:58.496Z,25.40
2018-06-13T03:29:02.040Z,25.40
2018-06-13T03:34:05.572Z,25.40
2018-06-13T03:44:12.133Z,25.50
2018-06-13T03:49:15.944Z,25.50
2018-06-13T03:54:19.737Z,25.40
2018-06-13T03:59:22.996Z,25.50
2018-06-13T04:04:27.293Z,25.50
2018-06-13T04:09:30.713Z,25.50
2018-06-13T04:14:33.987Z,25.50
2018-06-13T04:19:37.329Z,25.50
2018-06-13T04:24:40.581Z,25.50
2018-06-13T04:29:44.037Z,25.50
2018-06-13T04:34:47.301Z,25.50
2018-06-13T04:39:50.530Z,25.50
2018-06-13T04:44:53.801Z,25.50
2018-06-13T04:49:58.001Z,25.50
2018-06-13T04:55:01.395Z,25.50
2018-06-13T05:00:04.944Z,25.50
2018-06-13T05:05:08.290Z,25.60
2018-06-13T05:10:11.483Z,25.60
2018-06-13T05:15:14.680Z,25.60
2018-06-13T05:20:18.165Z,25.60
2018-06-13T05:25:21.609Z,25.60
2018-06-13T05:30:25.207Z,25.60
2018-06-13T05:35:28.572Z,25.60
2018-06-13T05:40:31.849Z,25.60
2018-06-13T05:45:35.687Z,25.60
2018-06-13T05:50:38.937Z,25.60
2018-06-13T05:55:42.475Z,25.60
2018-06-13T06:00:46.304Z,25.60
2018-06-13T06:05:49.549Z,25.60
2018-06-13T06:10:52.999Z,25.60
2018-06-13T06:15:58.132Z,25.60
2018-06-13T06:21:01.421Z,25.60
2018-06-13T06:26:04.753Z,25.60
2018-06-13T06:31:08.466Z,25.60
2018-06-13T06:36:11.715Z,25.60
2018-06-13T06:41:14.891Z,25.70
2018-06-13T06:46:18.163Z,25.60
2018-06-13T06:51:21.379Z,25.70
2018-06-13T06:56:24.841Z,25.70
2018-06-13T07:01:28.065Z,25.70
2018-06-13T07:06:31.514Z,25.90
2018-06-13T07:11:34.754Z,26.00
2018-06-13T07:16:38.300Z,25.90
2018-06-13T07:21:41.507Z,25.80
2018-06-13T07:26:44.793Z,25.70
2018-06-13T07:31:48.090Z,25.80
2018-06-13T07:36:51.953Z,25.60
2018-06-13T07:41:55.262Z,25.80
2018-06-13T07:46:58.667Z,25.80
2018-06-13T07:52:01.969Z,25.80
2018-06-13T07:57:05.185Z,25.80
2018-06-13T08:02:08.866Z,25.80
2018-06-13T08:07:13.596Z,25.90
2018-06-13T08:12:16.906Z,26.00
2018-06-13T08:17:20.112Z,26.10
2018-06-13T08:22:23.404Z,26.00
2018-06-13T08:27:26.670Z,25.90
2018-06-13T08:32:30.045Z,25.90
2018-06-13T08:37:33.416Z,25.90
2018-06-13T08:42:36.878Z,25.80
2018-06-13T08:47:40.351Z,25.80
2018-06-13T08:52:43.614Z,26.00
2018-06-13T08:57:47.088Z,26.30
2018-06-13T09:02:50.309Z,26.20
2018-06-13T09:07:53.602Z,26.30
2018-06-13T09:12:57.180Z,26.30
2018-06-13T09:18:00.490Z,26.10
2018-06-13T09:23:04.561Z,26.30
2018-06-13T09:28:07.802Z,26.20
2018-06-13T09:33:11.059Z,26.30
2018-06-13T09:38:14.271Z,26.20
2018-06-13T09:43:17.525Z,26.20
2018-06-13T09:48:20.760Z,26.00
2018-06-13T09:53:24.019Z,26.00
2018-06-13T09:58:27.512Z,26.00
2018-06-13T10:03:31.351Z,26.00
2018-06-13T10:08:34.755Z,26.00
2018-06-13T10:13:37.999Z,25.90
2018-06-13T10:18:41.325Z,25.90
2018-06-13T10:23:44.519Z,25.90
2018-06-13T10:28:47.918Z,25.90
2018-06-13T10:33:51.146Z,26.00
2018-06-13T10:38:54.366Z,26.00
2018-06-13T10:43:59.370Z,26.00
2018-06-13T10:49:02.578Z,26.00
2018-06-13T10:54:06.080Z,26.00
2018-06-13T10:59:09.345Z,26.00
2018-06-13T11:04:12.765Z,25.80
2018-06-13T11:09:15.991Z,25.80
2018-06-13T11:14:19.311Z,25.80
2018-06-13T11:19:22.599Z,25.80
2018-06-13T11:24:25.950Z,25.70
2018-06-13T11:29:29.522Z,25.70
2018-06-13T11:39:36.049Z,25.60
2018-06-13T11:44:40.267Z,25.70
2018-06-13T11:49:43.525Z,25.70
2018-06-13T11:54:46.985Z,25.80
2018-06-13T11:59:50.245Z,25.80
2018-06-13T12:04:53.453Z,25.80
2018-06-13T12:09:56.669Z,25.80
2018-06-13T12:15:00.071Z,25.90
2018-06-13T12:20:03.512Z,25.90
2018-06-13T12:25:06.766Z,25.90
2018-06-13T12:30:10.323Z,25.90
2018-06-13T12:35:13.853Z,25.90
2018-06-13T12:40:17.177Z,25.90
2018-06-13T12:45:20.419Z,25.90
2018-06-13T12:50:23.812Z,26.00
2018-06-13T12:55:27.173Z,26.00
2018-06-13T13:00:30.450Z,26.00
2018-06-13T13:05:33.820Z,26.00
2018-06-13T13:10:37.657Z,26.10
2018-06-13T13:15:41.929Z,26.00
2018-06-13T13:20:45.772Z,26.00
2018-06-13T13:25:49.060Z,26.00
2018-06-13T13:30:52.357Z,25.90
2018-06-13T13:35:55.704Z,25.90
2018-06-13T13:40:58.992Z,25.60
2018-06-13T13:46:04.273Z,25.60
2018-06-13T13:51:07.498Z,25.60
2018-06-13T13:56:11.103Z,25.60
2018-06-13T14:01:14.409Z,25.60
2018-06-13T14:06:17.624Z,25.60
2018-06-13T14:11:21.357Z,25.60
2018-06-13T14:16:24.718Z,25.60
2018-06-13T14:21:27.937Z,25.70
2018-06-13T14:26:31.188Z,25.60
2018-06-13T14:31:34.599Z,25.40
2018-06-13T14:36:37.923Z,25.40
2018-06-13T14:41:41.263Z,25.40
2018-06-13T14:46:44.559Z,25.50
2018-06-13T14:51:52.099Z,25.00
2018-06-13T14:56:55.405Z,24.60
2018-06-13T15:02:00.049Z,25.00
2018-06-13T15:07:04.615Z,25.30
2018-06-13T15:12:08.113Z,25.20
2018-06-13T15:17:11.609Z,25.30
2018-06-13T15:22:14.875Z,25.40
2018-06-13T15:27:18.399Z,25.40
2018-06-13T15:32:21.671Z,25.60
2018-06-13T15:37:25.015Z,25.60
2018-06-13T15:42:28.321Z,25.60
2018-06-13T15:47:31.679Z,25.60
2018-06-13T15:52:35.010Z,25.60
2018-06-13T15:57:38.521Z,25.60
2018-06-13T16:02:42.368Z,25.60
2018-06-13T16:07:45.871Z,25.70
2018-06-13T16:12:49.074Z,25.60
2018-06-13T16:17:52.765Z,25.60
2018-06-13T16:22:56.063Z,25.60
2018-06-13T16:27:59.373Z,25.60
2018-06-13T16:33:02.691Z,25.70
2018-06-13T16:38:05.924Z,25.60
2018-06-13T16:43:09.223Z,25.60
2018-06-13T16:48:12.681Z,25.60
2018-06-13T16:53:27.327Z,25.60
2018-06-13T16:58:30.539Z,25.70
2018-06-13T17:03:34.412Z,25.60
2018-06-13T17:08:38.155Z,25.60
2018-06-13T17:13:41.543Z,25.60
2018-06-13T17:18:44.816Z,25.70
2018-06-13T17:23:48.660Z,25.70
2018-06-13T17:28:52.267Z,25.60
2018-06-13T17:33:55.832Z,25.70
2018-06-13T17:38:59.074Z,25.60
2018-06-13T17:44:02.379Z,25.60
2018-06-13T17:49:06.085Z,25.60
2018-06-13T17:54:10.043Z,25.60
2018-06-13T17:59:13.356Z,25.60
2018-06-13T18:04:16.686Z,25.60
2018-06-13T18:09:19.909Z,25.60
2018-06-13T18:14:23.270Z,25.60
2018-06-13T18:19:26.578Z,25.60
2018-06-13T18:24:29.857Z,25.60
2018-06-13T18:29:33.157Z,25.50
2018-06-13T18:34:36.439Z,25.50
2018-06-13T18:39:39.893Z,25.50
2018-06-13T18:44:43.158Z,25.50
2018-06-13T18:49:46.463Z,25.60
2018-06-13T18:54:49.759Z,25.50
2018-06-13T18:59:53.542Z,25.50
2018-06-13T19:04:56.971Z,25.60
2018-06-13T19:10:00.411Z,25.50
2018-06-13T19:15:03.896Z,25.50
2018-06-13T19:20:07.389Z,25.40
2018-06-13T19:25:11.003Z,25.50
2018-06-13T19:30:14.916Z,25.40
2018-06-13T19:35:18.628Z,25.40
2018-06-13T19:40:21.912Z,25.40
2018-06-13T19:45:26.611Z,25.40
2018-06-13T19:50:30.420Z,25.40
2018-06-13T19:55:39.050Z,25.50
2018-06-13T20:00:42.313Z,25.40
2018-06-13T20:05:46.065Z,25.40
2018-06-13T20:10:50.017Z,25.40
2018-06-13T20:15:59.125Z,25.40
2018-06-13T20:21:02.927Z,25.40
2018-06-13T20:26:11.466Z,25.40
2018-06-13T20:31:20.443Z,25.40
2018-06-13T20:36:23.975Z,25.40
2018-06-13T20:41:27.285Z,25.40
2018-06-13T20:46:30.783Z,25.40
2018-06-13T20:51:34.659Z,25.40
2018-06-13T20:56:37.962Z,24.80
2018-06-13T21:01:41.216Z,24.40
2018-06-13T21:06:44.499Z,24.20
2018-06-13T21:11:47.757Z,24.00
2018-06-13T21:16:51.057Z,23.80
2018-06-13T21:21:54.391Z,23.80
2018-06-13T21:26:57.776Z,24.00
2018-06-13T21:32:01.076Z,24.00
2018-06-13T21:37:04.336Z,24.00
2018-06-13T21:42:07.906Z,23.50
2018-06-13T21:47:11.171Z,23.70
2018-06-13T21:52:14.436Z,23.60
2018-06-13T21:57:17.824Z,23.70
2018-06-13T22:02:21.110Z,23.70
2018-06-13T22:07:24.358Z,24.00
2018-06-13T22:12:27.622Z,24.30
2018-06-13T22:17:31.220Z,24.40
2018-06-13T22:22:35.393Z,24.60
2018-06-13T22:27:39.145Z,24.60
2018-06-13T22:32:42.465Z,24.70
2018-06-13T22:37:46.242Z,24.70
2018-06-13T22:42:49.730Z,24.80
2018-06-13T22:47:53.853Z,24.80
2018-06-13T22:52:57.076Z,24.80
2018-06-13T22:58:00.932Z,24.80
2018-06-13T23:03:04.251Z,24.80
2018-06-13T23:08:08.224Z,24.80
2018-06-13T23:13:11.459Z,24.90
2018-06-13T23:18:14.701Z,24.90
2018-06-13T23:23:18.351Z,24.80
2018-06-13T23:28:22.023Z,24.80
2018-06-13T23:33:25.549Z,24.80
2018-06-13T23:38:28.850Z,24.90
2018-06-13T23:43:32.106Z,24.90
2018-06-13T23:48:36.407Z,24.90
2018-06-13T23:53:39.650Z,24.80
2018-06-13T23:58:43.275Z,24.90
